Capitol Logistics 1821

Operating for CJT



CYMX
Montreal International (Mirabel) Airport
Montreal, CA
CYHM
John C. Munro Hamilton International Airport
Hamilton, CA

Activity Log

Date Flight Route Aircraft Duration
02/28/2022 CPX1821 KESKA SAVEX KANUR TUKIR Q806 ILUSI ERBAL YYZ UDMIK3 B752 1h 10m
01/28/2022 CPX1821 KESKA SAVEX KANUR TUKIR Q806 ILUSI ERBAL YYZ UDMIK3 B738 1h 14m
11/12/2021 CPX1821 KESKA SAVEX KANUR TUKIR Q806 ILUSI ERBAL YYZ UDMIK3 B752 1h 14m

Route Details

Aircraft Information
Group: North America Fleet
Types: B738,B752,B762,B763
Route Data
Demand: V
Distance: 294nm
Duration: 1h 14m
Recm'd Route: KESKA SAVEX KANUR TUKIR Q806 ILUSI ERBAL YYZ UDMIK3
Origin Wx: CYMX 272200Z 22006KT 25SM SCT012 BKN110 20/18 A2966 RMK CU3AC4 SLP046 DENSITY ALT 1300FT
Dest. Wx: CYHM 272200Z 21012KT 15SM FEW036 FEW130 SCT250 23/14 A2968 RMK CU1AC1CI2 AC TR SLP051 DENSITY ALT 2200FT
Notes:

Financial History
Total Freight: 94,298lbs
Average Load: 31,433lbs/flt
Fuel Used: 194lbs
Avg. Fuel Used: 65lbs/flt
Fuel Expense: $-292
Avg. Fuel Expense: $-97
Avg. Fuel Cost: $0.34/lbs
Total Gross Income: $233,859
Pilot Pay: $737
Total Expenses: $29,645
Total Revenue: $203,671
Average Revenue: $77,953.01